Thursday, June 21, 2018, 12:16 PM EDT
Back to Local

KPVD, Providence Green State Airport

Location: Warwick, RI, United States Lat: 41.733
Local Time: 12:16 PM EDT (16:16 GMT) Lon: -71.433
Time Zone: US/Eastern Elev: 55 ft

Show me the last for .
Show Decoded

2018-06-21 11:51 METAR KPVD 211551Z 15006KT 10SM FEW035 FEW140 24/15 A2979 RMK AO2 SLP086
                 T02390150 =
2018-06-21 10:51 METAR KPVD 211451Z 14008KT 10SM FEW030 SCT120 SCT160 23/15 A2979 RMK AO2 SLP088
                 T02330150 51005 =
2018-06-21 09:51 METAR KPVD 211351Z 15008KT 10SM FEW025 SCT130 SCT180 21/16 A2979 RMK AO2 SLP087
                 T02110161 =
2018-06-21 08:51 METAR KPVD 211251Z 18008KT 10SM FEW015 SCT100 SCT130 BKN170 22/16 A2979 RMK AO2
                 SLP086 T02220156 =
2018-06-21 07:51 METAR KPVD 211151Z 21004KT 10SM FEW100 SCT130 BKN170 21/17 A2978 RMK AO2 SLP083
                 60000 T02110172 10211 20194 53007 =
2018-06-21 06:51 METAR KPVD 211051Z 20005KT 10SM FEW010 SCT100 BKN130 BKN160 19/17 A2978 RMK AO2
                 SLP082 T01940172 =
2018-06-21 05:51 METAR KPVD 210951Z 22005KT 10SM FEW015 SCT100 BKN130 20/17 A2976 RMK AO2 SLP076
                 T02000172 =
2018-06-21 04:51 METAR KPVD 210851Z AUTO 25006KT 10SM CLR 20/18 A2976 RMK AO2 RAB0752E03 SLP076
                 P0000 60000 T02000178 55004 =
2018-06-21 03:51 METAR KPVD 210751Z AUTO 24005KT 10SM SCT110 20/18 A2975 RMK AO2 SLP073 T02000178
                 =
2018-06-21 02:51 METAR KPVD 210651Z AUTO 24005KT 10SM CLR 20/18 A2976 RMK AO2 SLP076 T02000178 =
2018-06-21 01:51 METAR KPVD 210551Z AUTO 23006KT 10SM CLR 21/18 A2977 RMK AO2 SLP080 T02060178
                 10233 20206 56009 =
2018-06-21 00:51 METAR KPVD 210451Z AUTO 25006KT 10SM BKN120 21/18 A2978 RMK AO2 SLP083 T02110178
                 402890150 =
2018-06-20 23:51 METAR KPVD 210351Z 23006KT 10SM FEW060 BKN140 BKN250 21/18 A2979 RMK AO2 SLP085
                 LAST T02110178 =
2018-06-20 22:51 METAR KPVD 210251Z 22005KT 10SM FEW060 BKN140 BKN250 21/18 A2980 RMK AO2 SLP089
                 T02110178 50005 =
2018-06-20 21:51 METAR KPVD 210151Z 22008KT 10SM FEW060 BKN140 BKN250 22/18 A2980 RMK AO2 SLP090
                 T02170178 =
2018-06-20 20:51 METAR KPVD 210051Z 19006KT 10SM FEW060 SCT120 BKN140 BKN250 22/17 A2979 RMK AO2
                 SLP085 T02220172 =
2018-06-20 19:51 METAR KPVD 202351Z 22009KT 10SM FEW060 SCT120 BKN140 BKN250 23/17 A2978 RMK AO2
                 SLP084 T02330167 10289 20233 55003 =
2018-06-20 18:51 METAR KPVD 202251Z 22009KT 10SM FEW040 FEW060 BKN120 BKN250 24/14 A2978 RMK AO2
                 SLP083 T02440144 =
2018-06-20 17:51 METAR KPVD 202151Z 22009KT 10SM FEW040 SCT060 BKN140 BKN250 26/13 A2978 RMK AO2
                 SLP085 T02610128 =
2018-06-20 16:51 METAR KPVD 202051Z 21014KT 10SM FEW035 SCT060 BKN140 BKN250 27/13 A2979 RMK AO2
                 SLP087 T02720133 56013 =
2018-06-20 15:51 METAR KPVD 201951Z 26008KT 10SM FEW035 SCT100 BKN250 28/12 A2980 RMK AO2 SLP092
                 T02830117 =
2018-06-20 14:51 METAR KPVD 201851Z 28006KT 10SM FEW035 FEW070 FEW120 BKN250 29/12 A2982 RMK AO2
                 SLP095 T02890117 =
2018-06-20 13:51 METAR KPVD 201751Z 14008KT 10SM FEW035 FEW070 FEW120 SCT220 BKN300 26/17 A2983
                 RMK AO2 SLP100 T02560172 10261 20206 58019 =
2018-06-20 12:51 METAR KPVD 201651Z 13011KT 10SM FEW030 FEW140 SCT190 BKN300 24/17 A2986 RMK AO2
                 SLP110 T02440167 =

Support USWX by starting your Amazon purchase here.